sensor_id;sensor_type;location;lat;lon;timestamp;P1;durP1;ratioP1;P2;durP2;ratioP2
75375;SDS011;63958;52.004;5.908;2022-12-07T00:01:46;2.47;;;1.98;;
75375;SDS011;63958;52.004;5.908;2022-12-07T00:04:18;3.08;;;2.17;;
75375;SDS011;63958;52.004;5.908;2022-12-07T00:06:50;3.42;;;2.42;;
75375;SDS011;63958;52.004;5.908;2022-12-07T00:09:20;2.88;;;2.10;;
75375;SDS011;63958;52.004;5.908;2022-12-07T00:11:49;3.03;;;2.08;;
75375;SDS011;63958;52.004;5.908;2022-12-07T00:14:19;2.80;;;2.10;;
75375;SDS011;63958;52.004;5.908;2022-12-07T00:16:49;3.22;;;1.98;;
75375;SDS011;63958;52.004;5.908;2022-12-07T00:19:22;3.42;;;2.25;;
75375;SDS011;63958;52.004;5.908;2022-12-07T00:21:51;3.10;;;2.40;;
75375;SDS011;63958;52.004;5.908;2022-12-07T00:24:19;3.67;;;2.70;;
75375;SDS011;63958;52.004;5.908;2022-12-07T00:26:48;2.22;;;1.80;;
75375;SDS011;63958;52.004;5.908;2022-12-07T00:29:18;2.92;;;2.53;;
75375;SDS011;63958;52.004;5.908;2022-12-07T00:31:48;4.68;;;2.88;;
75375;SDS011;63958;52.004;5.908;2022-12-07T00:34:19;4.10;;;2.47;;
75375;SDS011;63958;52.004;5.908;2022-12-07T00:36:50;4.25;;;2.38;;
75375;SDS011;63958;52.004;5.908;2022-12-07T00:39:19;2.72;;;2.25;;
75375;SDS011;63958;52.004;5.908;2022-12-07T00:41:48;2.30;;;1.80;;
75375;SDS011;63958;52.004;5.908;2022-12-07T00:44:17;2.97;;;1.92;;
75375;SDS011;63958;52.004;5.908;2022-12-07T00:46:46;3.03;;;1.75;;
75375;SDS011;63958;52.004;5.908;2022-12-07T00:49:15;2.85;;;2.05;;
75375;SDS011;63958;52.004;5.908;2022-12-07T00:51:47;3.05;;;1.85;;
75375;SDS011;63958;52.004;5.908;2022-12-07T00:54:16;2.72;;;1.88;;
75375;SDS011;63958;52.004;5.908;2022-12-07T00:56:45;3.78;;;2.58;;
75375;SDS011;63958;52.004;5.908;2022-12-07T00:59:14;3.35;;;2.30;;
75375;SDS011;63958;52.004;5.908;2022-12-07T01:01:43;2.75;;;2.20;;
75375;SDS011;63958;52.004;5.908;2022-12-07T01:04:12;3.33;;;1.85;;
75375;SDS011;63958;52.004;5.908;2022-12-07T01:06:41;2.78;;;2.08;;
75375;SDS011;63958;52.004;5.908;2022-12-07T01:09:12;2.40;;;2.00;;
75375;SDS011;63958;52.004;5.908;2022-12-07T01:11:41;2.60;;;1.80;;
75375;SDS011;63958;52.004;5.908;2022-12-07T01:14:10;3.83;;;2.20;;
75375;SDS011;63958;52.004;5.908;2022-12-07T01:16:39;2.65;;;1.88;;
75375;SDS011;63958;52.004;5.908;2022-12-07T01:19:08;2.97;;;2.20;;
75375;SDS011;63958;52.004;5.908;2022-12-07T01:21:37;3.10;;;2.10;;
75375;SDS011;63958;52.004;5.908;2022-12-07T01:24:07;2.60;;;1.88;;
75375;SDS011;63958;52.004;5.908;2022-12-07T01:26:41;2.67;;;1.50;;
75375;SDS011;63958;52.004;5.908;2022-12-07T01:29:09;3.13;;;2.28;;
75375;SDS011;63958;52.004;5.908;2022-12-07T01:31:38;3.22;;;2.42;;
75375;SDS011;63958;52.004;5.908;2022-12-07T01:34:07;3.67;;;2.42;;
75375;SDS011;63958;52.004;5.908;2022-12-07T01:36:36;2.92;;;2.13;;
75375;SDS011;63958;52.004;5.908;2022-12-07T01:39:06;3.53;;;1.98;;
75375;SDS011;63958;52.004;5.908;2022-12-07T01:41:40;3.05;;;2.20;;
75375;SDS011;63958;52.004;5.908;2022-12-07T01:44:19;2.95;;;2.25;;
75375;SDS011;63958;52.004;5.908;2022-12-07T01:46:50;4.97;;;2.25;;
75375;SDS011;63958;52.004;5.908;2022-12-07T01:49:31;2.25;;;1.67;;
75375;SDS011;63958;52.004;5.908;2022-12-07T01:52:06;2.55;;;1.80;;
75375;SDS011;63958;52.004;5.908;2022-12-07T01:54:41;2.50;;;2.00;;
75375;SDS011;63958;52.004;5.908;2022-12-07T01:57:14;2.40;;;2.00;;
75375;SDS011;63958;52.004;5.908;2022-12-07T01:59:45;3.67;;;1.92;;
75375;SDS011;63958;52.004;5.908;2022-12-07T02:02:17;3.35;;;2.25;;
75375;SDS011;63958;52.004;5.908;2022-12-07T02:04:50;3.15;;;2.22;;
75375;SDS011;63958;52.004;5.908;2022-12-07T02:07:20;3.95;;;2.33;;
75375;SDS011;63958;52.004;5.908;2022-12-07T02:09:50;3.33;;;2.35;;
75375;SDS011;63958;52.004;5.908;2022-12-07T02:12:21;3.50;;;2.47;;
75375;SDS011;63958;52.004;5.908;2022-12-07T02:14:52;3.83;;;2.47;;
75375;SDS011;63958;52.004;5.908;2022-12-07T02:17:22;4.13;;;2.28;;
75375;SDS011;63958;52.004;5.908;2022-12-07T02:20:07;2.13;;;1.83;;
75375;SDS011;63958;52.004;5.908;2022-12-07T02:25:55;3.08;;;2.60;;
75375;SDS011;63958;52.004;5.908;2022-12-07T02:28:50;4.60;;;3.00;;
75375;SDS011;63958;52.004;5.908;2022-12-07T02:31:32;3.28;;;2.22;;
75375;SDS011;63958;52.004;5.908;2022-12-07T02:34:03;3.75;;;2.67;;
75375;SDS011;63958;52.004;5.908;2022-12-07T02:36:38;5.30;;;2.70;;
75375;SDS011;63958;52.004;5.908;2022-12-07T02:39:11;3.55;;;2.42;;
75375;SDS011;63958;52.004;5.908;2022-12-07T02:41:46;2.78;;;1.90;;
75375;SDS011;63958;52.004;5.908;2022-12-07T02:44:20;2.80;;;2.20;;
75375;SDS011;63958;52.004;5.908;2022-12-07T02:46:52;2.72;;;2.03;;
75375;SDS011;63958;52.004;5.908;2022-12-07T02:49:23;4.50;;;2.15;;
75375;SDS011;63958;52.004;5.908;2022-12-07T02:51:54;3.83;;;2.33;;
75375;SDS011;63958;52.004;5.908;2022-12-07T02:54:23;4.68;;;2.95;;
75375;SDS011;63958;52.004;5.908;2022-12-07T02:56:54;3.70;;;1.98;;
75375;SDS011;63958;52.004;5.908;2022-12-07T02:59:33;3.97;;;2.10;;
75375;SDS011;63958;52.004;5.908;2022-12-07T03:02:11;4.10;;;2.22;;
75375;SDS011;63958;52.004;5.908;2022-12-07T03:04:52;4.05;;;2.50;;
75375;SDS011;63958;52.004;5.908;2022-12-07T03:07:30;3.97;;;2.55;;
75375;SDS011;63958;52.004;5.908;2022-12-07T03:10:07;4.25;;;2.05;;
75375;SDS011;63958;52.004;5.908;2022-12-07T03:12:44;2.70;;;1.77;;
75375;SDS011;63958;52.004;5.908;2022-12-07T03:17:49;3.80;;;1.90;;
75375;SDS011;63958;52.004;5.908;2022-12-07T03:20:21;3.30;;;1.95;;
75375;SDS011;63958;52.004;5.908;2022-12-07T03:22:52;3.60;;;1.43;;
75375;SDS011;63958;52.004;5.908;2022-12-07T03:25:22;2.85;;;1.50;;
75375;SDS011;63958;52.004;5.908;2022-12-07T03:27:52;2.33;;;1.63;;
75375;SDS011;63958;52.004;5.908;2022-12-07T03:30:27;2.45;;;1.60;;
75375;SDS011;63958;52.004;5.908;2022-12-07T03:33:01;3.30;;;1.67;;
75375;SDS011;63958;52.004;5.908;2022-12-07T03:35:34;2.15;;;1.60;;
75375;SDS011;63958;52.004;5.908;2022-12-07T03:38:10;3.75;;;1.55;;
75375;SDS011;63958;52.004;5.908;2022-12-07T03:40:45;2.35;;;1.70;;
75375;SDS011;63958;52.004;5.908;2022-12-07T03:43:19;2.25;;;1.60;;
75375;SDS011;63958;52.004;5.908;2022-12-07T03:45:53;2.47;;;1.50;;
75375;SDS011;63958;52.004;5.908;2022-12-07T03:48:31;1.77;;;1.33;;
75375;SDS011;63958;52.004;5.908;2022-12-07T03:51:06;2.40;;;1.50;;
75375;SDS011;63958;52.004;5.908;2022-12-07T03:53:42;2.55;;;1.50;;
75375;SDS011;63958;52.004;5.908;2022-12-07T03:56:14;4.85;;;1.60;;
75375;SDS011;63958;52.004;5.908;2022-12-07T03:58:45;2.17;;;1.38;;
75375;SDS011;63958;52.004;5.908;2022-12-07T04:01:17;1.85;;;1.33;;
75375;SDS011;63958;52.004;5.908;2022-12-07T04:03:46;2.85;;;1.50;;
75375;SDS011;63958;52.004;5.908;2022-12-07T04:06:15;4.53;;;1.70;;
75375;SDS011;63958;52.004;5.908;2022-12-07T04:08:44;2.50;;;1.38;;
75375;SDS011;63958;52.004;5.908;2022-12-07T04:11:13;1.75;;;1.20;;
75375;SDS011;63958;52.004;5.908;2022-12-07T04:13:42;2.95;;;1.50;;
75375;SDS011;63958;52.004;5.908;2022-12-07T04:16:25;3.42;;;1.60;;
75375;SDS011;63958;52.004;5.908;2022-12-07T04:18:54;1.70;;;1.20;;
75375;SDS011;63958;52.004;5.908;2022-12-07T04:21:23;4.35;;;1.90;;
75375;SDS011;63958;52.004;5.908;2022-12-07T04:23:52;1.85;;;1.13;;
75375;SDS011;63958;52.004;5.908;2022-12-07T04:26:21;2.83;;;1.52;;
75375;SDS011;63958;52.004;5.908;2022-12-07T04:28:50;1.85;;;1.25;;
75375;SDS011;63958;52.004;5.908;2022-12-07T04:31:19;6.38;;;1.63;;
75375;SDS011;63958;52.004;5.908;2022-12-07T04:33:50;3.92;;;1.33;;
75375;SDS011;63958;52.004;5.908;2022-12-07T04:36:19;3.87;;;2.10;;
75375;SDS011;63958;52.004;5.908;2022-12-07T04:38:48;3.58;;;2.00;;
75375;SDS011;63958;52.004;5.908;2022-12-07T04:41:17;3.72;;;1.75;;
75375;SDS011;63958;52.004;5.908;2022-12-07T04:43:52;3.30;;;1.38;;
75375;SDS011;63958;52.004;5.908;2022-12-07T04:46:22;1.25;;;1.05;;
75375;SDS011;63958;52.004;5.908;2022-12-07T04:48:55;3.30;;;1.20;;
75375;SDS011;63958;52.004;5.908;2022-12-07T04:51:24;1.45;;;1.15;;
75375;SDS011;63958;52.004;5.908;2022-12-07T04:53:55;1.73;;;1.02;;
75375;SDS011;63958;52.004;5.908;2022-12-07T04:56:24;1.90;;;1.23;;
75375;SDS011;63958;52.004;5.908;2022-12-07T04:58:53;1.70;;;1.33;;
75375;SDS011;63958;52.004;5.908;2022-12-07T05:01:23;5.45;;;1.40;;
75375;SDS011;63958;52.004;5.908;2022-12-07T05:03:54;1.98;;;1.17;;
75375;SDS011;63958;52.004;5.908;2022-12-07T05:06:23;4.07;;;1.25;;
75375;SDS011;63958;52.004;5.908;2022-12-07T05:08:52;1.67;;;1.02;;
75375;SDS011;63958;52.004;5.908;2022-12-07T05:11:21;1.92;;;1.23;;
75375;SDS011;63958;52.004;5.908;2022-12-07T05:14:03;3.28;;;1.17;;
75375;SDS011;63958;52.004;5.908;2022-12-07T05:16:34;2.20;;;1.67;;
75375;SDS011;63958;52.004;5.908;2022-12-07T05:19:05;2.95;;;0.95;;
75375;SDS011;63958;52.004;5.908;2022-12-07T05:21:35;2.03;;;1.23;;
75375;SDS011;63958;52.004;5.908;2022-12-07T05:24:05;2.88;;;1.17;;
75375;SDS011;63958;52.004;5.908;2022-12-07T05:26:34;2.45;;;1.13;;
75375;SDS011;63958;52.004;5.908;2022-12-07T05:29:03;1.52;;;1.30;;
75375;SDS011;63958;52.004;5.908;2022-12-07T05:31:33;1.60;;;1.17;;
75375;SDS011;63958;52.004;5.908;2022-12-07T05:34:01;2.63;;;1.20;;
75375;SDS011;63958;52.004;5.908;2022-12-07T05:36:33;1.60;;;0.80;;
75375;SDS011;63958;52.004;5.908;2022-12-07T05:39:02;4.38;;;1.13;;
75375;SDS011;63958;52.004;5.908;2022-12-07T05:41:31;3.67;;;1.42;;
75375;SDS011;63958;52.004;5.908;2022-12-07T05:44:12;3.70;;;1.15;;
75375;SDS011;63958;52.004;5.908;2022-12-07T05:46:41;5.18;;;1.35;;
75375;SDS011;63958;52.004;5.908;2022-12-07T05:49:13;2.22;;;0.82;;
75375;SDS011;63958;52.004;5.908;2022-12-07T05:51:42;1.55;;;1.08;;
75375;SDS011;63958;52.004;5.908;2022-12-07T05:54:11;1.27;;;0.90;;
75375;SDS011;63958;52.004;5.908;2022-12-07T05:56:40;3.85;;;1.10;;
75375;SDS011;63958;52.004;5.908;2022-12-07T05:59:09;1.65;;;0.90;;
75375;SDS011;63958;52.004;5.908;2022-12-07T06:01:54;2.00;;;1.13;;
75375;SDS011;63958;52.004;5.908;2022-12-07T06:04:27;2.97;;;1.20;;
75375;SDS011;63958;52.004;5.908;2022-12-07T06:06:57;2.92;;;1.10;;
75375;SDS011;63958;52.004;5.908;2022-12-07T06:09:27;2.47;;;0.93;;
75375;SDS011;63958;52.004;5.908;2022-12-07T06:11:58;2.47;;;0.85;;
75375;SDS011;63958;52.004;5.908;2022-12-07T06:14:40;1.27;;;0.90;;
75375;SDS011;63958;52.004;5.908;2022-12-07T06:17:09;1.45;;;0.82;;
75375;SDS011;63958;52.004;5.908;2022-12-07T06:19:41;2.28;;;1.20;;
75375;SDS011;63958;52.004;5.908;2022-12-07T06:22:11;2.25;;;1.20;;
75375;SDS011;63958;52.004;5.908;2022-12-07T06:24:41;2.60;;;1.10;;
75375;SDS011;63958;52.004;5.908;2022-12-07T06:27:10;3.13;;;1.20;;
75375;SDS011;63958;52.004;5.908;2022-12-07T06:29:39;2.25;;;1.13;;
75375;SDS011;63958;52.004;5.908;2022-12-07T06:32:08;2.05;;;0.90;;
75375;SDS011;63958;52.004;5.908;2022-12-07T06:34:37;2.33;;;0.80;;
75375;SDS011;63958;52.004;5.908;2022-12-07T06:37:09;1.33;;;0.95;;
75375;SDS011;63958;52.004;5.908;2022-12-07T06:39:38;1.05;;;0.75;;
75375;SDS011;63958;52.004;5.908;2022-12-07T06:42:07;2.17;;;1.02;;
75375;SDS011;63958;52.004;5.908;2022-12-07T06:44:36;1.45;;;0.90;;
75375;SDS011;63958;52.004;5.908;2022-12-07T06:47:04;1.50;;;1.00;;
75375;SDS011;63958;52.004;5.908;2022-12-07T06:49:34;1.58;;;1.08;;
75375;SDS011;63958;52.004;5.908;2022-12-07T06:52:03;2.33;;;1.23;;
75375;SDS011;63958;52.004;5.908;2022-12-07T06:54:35;2.10;;;0.98;;
75375;SDS011;63958;52.004;5.908;2022-12-07T06:57:04;2.45;;;0.90;;
75375;SDS011;63958;52.004;5.908;2022-12-07T06:59:33;3.85;;;1.15;;
75375;SDS011;63958;52.004;5.908;2022-12-07T07:02:02;2.95;;;1.00;;
75375;SDS011;63958;52.004;5.908;2022-12-07T07:04:31;2.15;;;1.00;;
75375;SDS011;63958;52.004;5.908;2022-12-07T07:07:00;2.88;;;1.40;;
75375;SDS011;63958;52.004;5.908;2022-12-07T07:09:29;3.28;;;1.10;;
75375;SDS011;63958;52.004;5.908;2022-12-07T07:12:00;1.77;;;0.95;;
75375;SDS011;63958;52.004;5.908;2022-12-07T07:14:29;3.42;;;1.10;;
75375;SDS011;63958;52.004;5.908;2022-12-07T07:16:58;2.42;;;1.00;;
75375;SDS011;63958;52.004;5.908;2022-12-07T07:19:27;3.45;;;1.00;;
75375;SDS011;63958;52.004;5.908;2022-12-07T07:21:56;1.60;;;0.90;;
75375;SDS011;63958;52.004;5.908;2022-12-07T07:24:24;2.85;;;1.20;;
75375;SDS011;63958;52.004;5.908;2022-12-07T07:26:53;3.30;;;1.30;;
75375;SDS011;63958;52.004;5.908;2022-12-07T07:29:25;4.35;;;1.42;;
75375;SDS011;63958;52.004;5.908;2022-12-07T07:31:54;2.05;;;1.20;;
75375;SDS011;63958;52.004;5.908;2022-12-07T07:34:22;1.83;;;1.10;;
75375;SDS011;63958;52.004;5.908;2022-12-07T07:36:51;2.08;;;1.10;;
75375;SDS011;63958;52.004;5.908;2022-12-07T07:39:20;3.67;;;1.30;;
75375;SDS011;63958;52.004;5.908;2022-12-07T07:41:49;3.03;;;1.20;;
75375;SDS011;63958;52.004;5.908;2022-12-07T07:44:27;3.42;;;1.42;;
75375;SDS011;63958;52.004;5.908;2022-12-07T07:46:56;2.47;;;1.05;;
75375;SDS011;63958;52.004;5.908;2022-12-07T07:49:25;3.55;;;1.20;;
75375;SDS011;63958;52.004;5.908;2022-12-07T07:51:54;1.45;;;1.08;;
75375;SDS011;63958;52.004;5.908;2022-12-07T07:54:23;1.88;;;0.93;;
75375;SDS011;63958;52.004;5.908;2022-12-07T07:56:51;1.73;;;1.15;;
75375;SDS011;63958;52.004;5.908;2022-12-07T07:59:20;0.88;;;0.70;;
75375;SDS011;63958;52.004;5.908;2022-12-07T08:01:52;0.88;;;0.77;;
75375;SDS011;63958;52.004;5.908;2022-12-07T08:04:21;2.55;;;1.10;;
75375;SDS011;63958;52.004;5.908;2022-12-07T08:06:51;1.52;;;1.30;;
75375;SDS011;63958;52.004;5.908;2022-12-07T08:09:20;1.05;;;0.82;;
75375;SDS011;63958;52.004;5.908;2022-12-07T08:11:49;3.05;;;1.15;;
75375;SDS011;63958;52.004;5.908;2022-12-07T08:14:18;1.85;;;1.00;;
75375;SDS011;63958;52.004;5.908;2022-12-07T08:16:47;1.33;;;0.88;;
75375;SDS011;63958;52.004;5.908;2022-12-07T08:19:18;3.10;;;0.88;;
75375;SDS011;63958;52.004;5.908;2022-12-07T08:21:47;1.90;;;0.90;;
75375;SDS011;63958;52.004;5.908;2022-12-07T08:24:16;1.02;;;0.80;;
75375;SDS011;63958;52.004;5.908;2022-12-07T08:26:46;3.08;;;1.00;;
75375;SDS011;63958;52.004;5.908;2022-12-07T08:29:18;2.97;;;0.88;;
75375;SDS011;63958;52.004;5.908;2022-12-07T08:31:47;3.75;;;1.20;;
75375;SDS011;63958;52.004;5.908;2022-12-07T08:34:19;6.25;;;1.95;;
75375;SDS011;63958;52.004;5.908;2022-12-07T08:36:48;3.17;;;1.45;;
75375;SDS011;63958;52.004;5.908;2022-12-07T08:39:17;1.45;;;1.10;;
75375;SDS011;63958;52.004;5.908;2022-12-07T08:41:46;4.00;;;1.30;;
75375;SDS011;63958;52.004;5.908;2022-12-07T08:44:14;1.80;;;1.13;;
75375;SDS011;63958;52.004;5.908;2022-12-07T08:46:44;2.30;;;1.25;;
75375;SDS011;63958;52.004;5.908;2022-12-07T08:49:16;4.28;;;2.05;;
75375;SDS011;63958;52.004;5.908;2022-12-07T08:51:51;4.00;;;1.80;;
75375;SDS011;63958;52.004;5.908;2022-12-07T08:54:20;4.85;;;1.63;;
75375;SDS011;63958;52.004;5.908;2022-12-07T08:56:49;5.50;;;1.60;;
75375;SDS011;63958;52.004;5.908;2022-12-07T08:59:19;2.30;;;1.13;;
75375;SDS011;63958;52.004;5.908;2022-12-07T09:01:49;1.63;;;0.75;;
75375;SDS011;63958;52.004;5.908;2022-12-07T09:04:20;2.53;;;0.88;;
75375;SDS011;63958;52.004;5.908;2022-12-07T09:06:49;3.30;;;1.00;;
75375;SDS011;63958;52.004;5.908;2022-12-07T09:09:18;2.75;;;0.90;;
75375;SDS011;63958;52.004;5.908;2022-12-07T09:11:47;1.65;;;0.80;;
75375;SDS011;63958;52.004;5.908;2022-12-07T09:14:16;1.52;;;0.70;;
75375;SDS011;63958;52.004;5.908;2022-12-07T09:16:45;2.45;;;0.68;;
75375;SDS011;63958;52.004;5.908;2022-12-07T09:19:14;1.75;;;1.10;;
75375;SDS011;63958;52.004;5.908;2022-12-07T09:21:45;2.97;;;0.88;;
75375;SDS011;63958;52.004;5.908;2022-12-07T09:24:14;1.05;;;0.80;;
75375;SDS011;63958;52.004;5.908;2022-12-07T09:26:43;1.13;;;0.88;;
75375;SDS011;63958;52.004;5.908;2022-12-07T09:29:12;1.73;;;1.02;;
75375;SDS011;63958;52.004;5.908;2022-12-07T09:31:41;2.50;;;1.35;;
75375;SDS011;63958;52.004;5.908;2022-12-07T09:34:10;1.70;;;1.13;;
75375;SDS011;63958;52.004;5.908;2022-12-07T09:36:39;2.13;;;1.20;;
75375;SDS011;63958;52.004;5.908;2022-12-07T09:39:11;3.90;;;1.45;;
75375;SDS011;63958;52.004;5.908;2022-12-07T09:41:40;1.43;;;0.70;;
75375;SDS011;63958;52.004;5.908;2022-12-07T09:44:12;2.53;;;0.80;;
75375;SDS011;63958;52.004;5.908;2022-12-07T09:46:42;2.72;;;1.20;;
75375;SDS011;63958;52.004;5.908;2022-12-07T09:49:14;2.63;;;1.35;;
75375;SDS011;63958;52.004;5.908;2022-12-07T09:51:46;7.68;;;2.20;;
75375;SDS011;63958;52.004;5.908;2022-12-07T09:54:18;3.17;;;1.48;;
75375;SDS011;63958;52.004;5.908;2022-12-07T09:56:47;3.70;;;1.40;;
75375;SDS011;63958;52.004;5.908;2022-12-07T09:59:17;3.05;;;0.90;;
75375;SDS011;63958;52.004;5.908;2022-12-07T10:01:48;2.95;;;1.50;;
75375;SDS011;63958;52.004;5.908;2022-12-07T10:04:19;3.88;;;1.23;;
75375;SDS011;63958;52.004;5.908;2022-12-07T10:06:49;3.90;;;1.45;;
75375;SDS011;63958;52.004;5.908;2022-12-07T10:09:21;1.23;;;0.90;;
75375;SDS011;63958;52.004;5.908;2022-12-07T10:12:02;2.17;;;1.10;;
75375;SDS011;63958;52.004;5.908;2022-12-07T10:14:35;2.40;;;1.10;;
75375;SDS011;63958;52.004;5.908;2022-12-07T10:20:18;2.17;;;1.30;;
75375;SDS011;63958;52.004;5.908;2022-12-07T10:22:57;1.90;;;1.15;;
75375;SDS011;63958;52.004;5.908;2022-12-07T10:25:32;2.45;;;1.05;;
75375;SDS011;63958;52.004;5.908;2022-12-07T10:28:10;1.98;;;1.02;;
75375;SDS011;63958;52.004;5.908;2022-12-07T10:30:46;1.63;;;0.95;;
75375;SDS011;63958;52.004;5.908;2022-12-07T10:33:28;1.23;;;0.95;;
75375;SDS011;63958;52.004;5.908;2022-12-07T10:36:15;1.60;;;1.08;;
75375;SDS011;63958;52.004;5.908;2022-12-07T10:38:47;0.73;;;0.70;;
75375;SDS011;63958;52.004;5.908;2022-12-07T10:41:20;2.00;;;0.90;;
75375;SDS011;63958;52.004;5.908;2022-12-07T10:43:50;2.92;;;1.17;;
75375;SDS011;63958;52.004;5.908;2022-12-07T10:52:53;2.00;;;0.90;;
75375;SDS011;63958;52.004;5.908;2022-12-07T10:55:32;2.22;;;1.15;;
75375;SDS011;63958;52.004;5.908;2022-12-07T11:01:10;2.72;;;1.38;;
75375;SDS011;63958;52.004;5.908;2022-12-07T11:03:51;1.83;;;1.42;;
75375;SDS011;63958;52.004;5.908;2022-12-07T11:06:32;1.58;;;0.80;;
75375;SDS011;63958;52.004;5.908;2022-12-07T11:09:26;3.45;;;1.85;;
75375;SDS011;63958;52.004;5.908;2022-12-07T11:12:09;1.33;;;0.98;;
75375;SDS011;63958;52.004;5.908;2022-12-07T11:14:47;1.75;;;1.27;;
75375;SDS011;63958;52.004;5.908;2022-12-07T11:17:24;1.45;;;1.13;;
75375;SDS011;63958;52.004;5.908;2022-12-07T11:20:02;1.25;;;0.90;;
75375;SDS011;63958;52.004;5.908;2022-12-07T11:22:42;1.33;;;0.90;;
75375;SDS011;63958;52.004;5.908;2022-12-07T11:25:21;3.20;;;0.80;;
75375;SDS011;63958;52.004;5.908;2022-12-07T11:28:00;1.95;;;1.30;;
75375;SDS011;63958;52.004;5.908;2022-12-07T11:30:45;1.83;;;1.00;;
75375;SDS011;63958;52.004;5.908;2022-12-07T11:33:21;1.77;;;1.20;;
75375;SDS011;63958;52.004;5.908;2022-12-07T11:35:59;1.48;;;1.10;;
75375;SDS011;63958;52.004;5.908;2022-12-07T11:38:35;2.92;;;1.10;;
75375;SDS011;63958;52.004;5.908;2022-12-07T11:41:09;1.17;;;0.90;;
75375;SDS011;63958;52.004;5.908;2022-12-07T11:43:46;2.90;;;1.20;;
75375;SDS011;63958;52.004;5.908;2022-12-07T11:46:25;3.90;;;1.20;;
75375;SDS011;63958;52.004;5.908;2022-12-07T11:48:58;3.25;;;1.80;;
75375;SDS011;63958;52.004;5.908;2022-12-07T11:51:33;1.50;;;1.08;;
75375;SDS011;63958;52.004;5.908;2022-12-07T11:54:10;2.67;;;1.20;;
75375;SDS011;63958;52.004;5.908;2022-12-07T11:56:42;2.95;;;0.90;;
75375;SDS011;63958;52.004;5.908;2022-12-07T11:59:17;3.83;;;2.22;;
75375;SDS011;63958;52.004;5.908;2022-12-07T12:01:56;1.95;;;1.00;;
75375;SDS011;63958;52.004;5.908;2022-12-07T12:04:33;1.67;;;1.00;;
75375;SDS011;63958;52.004;5.908;2022-12-07T12:07:14;1.23;;;0.82;;
75375;SDS011;63958;52.004;5.908;2022-12-07T12:09:48;1.65;;;0.80;;
75375;SDS011;63958;52.004;5.908;2022-12-07T12:15:29;2.45;;;0.88;;
75375;SDS011;63958;52.004;5.908;2022-12-07T12:18:27;0.82;;;0.82;;
75375;SDS011;63958;52.004;5.908;2022-12-07T12:21:06;1.63;;;0.85;;
75375;SDS011;63958;52.004;5.908;2022-12-07T12:23:39;1.63;;;1.00;;
75375;SDS011;63958;52.004;5.908;2022-12-07T12:26:14;2.03;;;1.10;;
75375;SDS011;63958;52.004;5.908;2022-12-07T12:28:52;1.88;;;1.10;;
75375;SDS011;63958;52.004;5.908;2022-12-07T12:31:35;0.82;;;0.80;;
75375;SDS011;63958;52.004;5.908;2022-12-07T12:37:02;2.50;;;1.05;;
75375;SDS011;63958;52.004;5.908;2022-12-07T12:39:30;2.00;;;1.10;;
75375;SDS011;63958;52.004;5.908;2022-12-07T12:42:00;2.88;;;1.30;;
75375;SDS011;63958;52.004;5.908;2022-12-07T12:47:56;3.53;;;1.70;;
75375;SDS011;63958;52.004;5.908;2022-12-07T12:50:32;4.90;;;2.03;;
75375;SDS011;63958;52.004;5.908;2022-12-07T12:53:13;6.78;;;1.63;;
75375;SDS011;63958;52.004;5.908;2022-12-07T12:55:52;4.18;;;1.92;;
75375;SDS011;63958;52.004;5.908;2022-12-07T12:58:39;2.40;;;1.30;;
75375;SDS011;63958;52.004;5.908;2022-12-07T13:03:55;2.53;;;0.90;;
75375;SDS011;63958;52.004;5.908;2022-12-07T13:06:35;3.25;;;1.17;;
75375;SDS011;63958;52.004;5.908;2022-12-07T13:09:15;1.42;;;0.85;;
75375;SDS011;63958;52.004;5.908;2022-12-07T13:11:49;2.13;;;1.10;;
75375;SDS011;63958;52.004;5.908;2022-12-07T13:14:51;1.85;;;0.80;;
75375;SDS011;63958;52.004;5.908;2022-12-07T13:23:31;2.22;;;1.05;;
75375;SDS011;63958;52.004;5.908;2022-12-07T13:26:09;2.05;;;0.95;;
75375;SDS011;63958;52.004;5.908;2022-12-07T13:28:43;1.00;;;0.88;;
75375;SDS011;63958;52.004;5.908;2022-12-07T13:34:01;2.05;;;0.90;;
75375;SDS011;63958;52.004;5.908;2022-12-07T13:36:32;1.65;;;0.95;;
75375;SDS011;63958;52.004;5.908;2022-12-07T13:39:18;2.22;;;1.00;;
75375;SDS011;63958;52.004;5.908;2022-12-07T13:41:49;1.90;;;1.10;;
75375;SDS011;63958;52.004;5.908;2022-12-07T13:44:19;3.92;;;1.35;;
75375;SDS011;63958;52.004;5.908;2022-12-07T13:46:50;4.07;;;1.20;;
75375;SDS011;63958;52.004;5.908;2022-12-07T13:49:26;1.85;;;0.98;;
75375;SDS011;63958;52.004;5.908;2022-12-07T13:52:08;2.20;;;1.45;;
75375;SDS011;63958;52.004;5.908;2022-12-07T13:54:47;2.80;;;1.45;;
75375;SDS011;63958;52.004;5.908;2022-12-07T13:57:17;3.35;;;1.00;;
75375;SDS011;63958;52.004;5.908;2022-12-07T13:59:47;3.75;;;1.27;;
75375;SDS011;63958;52.004;5.908;2022-12-07T14:02:19;2.17;;;0.90;;
75375;SDS011;63958;52.004;5.908;2022-12-07T14:05:06;3.75;;;1.42;;
75375;SDS011;63958;52.004;5.908;2022-12-07T14:07:47;6.25;;;1.92;;
75375;SDS011;63958;52.004;5.908;2022-12-07T14:10:26;3.65;;;1.38;;
75375;SDS011;63958;52.004;5.908;2022-12-07T14:12:57;2.17;;;1.13;;
75375;SDS011;63958;52.004;5.908;2022-12-07T14:15:28;2.45;;;1.10;;
75375;SDS011;63958;52.004;5.908;2022-12-07T14:17:59;1.65;;;1.10;;
75375;SDS011;63958;52.004;5.908;2022-12-07T14:20:30;1.63;;;0.73;;
75375;SDS011;63958;52.004;5.908;2022-12-07T14:23:02;1.58;;;0.90;;
75375;SDS011;63958;52.004;5.908;2022-12-07T14:25:46;0.47;;;0.40;;
75375;SDS011;63958;52.004;5.908;2022-12-07T14:28:24;1.47;;;0.93;;
75375;SDS011;63958;52.004;5.908;2022-12-07T14:30:54;2.50;;;0.82;;
75375;SDS011;63958;52.004;5.908;2022-12-07T14:33:23;1.48;;;0.80;;
75375;SDS011;63958;52.004;5.908;2022-12-07T14:35:53;0.80;;;0.75;;
75375;SDS011;63958;52.004;5.908;2022-12-07T14:38:23;0.65;;;0.40;;
75375;SDS011;63958;52.004;5.908;2022-12-07T14:40:56;1.10;;;0.70;;
75375;SDS011;63958;52.004;5.908;2022-12-07T14:43:46;2.67;;;1.00;;
75375;SDS011;63958;52.004;5.908;2022-12-07T14:46:15;1.13;;;0.90;;
75375;SDS011;63958;52.004;5.908;2022-12-07T14:48:44;2.67;;;0.63;;
75375;SDS011;63958;52.004;5.908;2022-12-07T14:51:13;2.47;;;1.00;;
75375;SDS011;63958;52.004;5.908;2022-12-07T14:53:44;1.88;;;1.00;;
75375;SDS011;63958;52.004;5.908;2022-12-07T14:56:19;2.22;;;0.82;;
75375;SDS011;63958;52.004;5.908;2022-12-07T14:58:48;0.97;;;0.80;;
75375;SDS011;63958;52.004;5.908;2022-12-07T15:01:17;0.82;;;0.80;;
75375;SDS011;63958;52.004;5.908;2022-12-07T15:03:46;1.58;;;0.90;;
75375;SDS011;63958;52.004;5.908;2022-12-07T15:06:15;1.17;;;1.00;;
75375;SDS011;63958;52.004;5.908;2022-12-07T15:08:45;4.35;;;0.80;;
75375;SDS011;63958;52.004;5.908;2022-12-07T15:11:15;1.50;;;1.08;;
75375;SDS011;63958;52.004;5.908;2022-12-07T15:13:47;1.17;;;0.70;;
75375;SDS011;63958;52.004;5.908;2022-12-07T15:16:29;1.90;;;0.75;;
75375;SDS011;63958;52.004;5.908;2022-12-07T15:18:57;1.30;;;0.85;;
75375;SDS011;63958;52.004;5.908;2022-12-07T15:21:26;0.80;;;0.68;;
75375;SDS011;63958;52.004;5.908;2022-12-07T15:23:55;1.42;;;0.60;;
75375;SDS011;63958;52.004;5.908;2022-12-07T15:26:24;1.00;;;0.68;;
75375;SDS011;63958;52.004;5.908;2022-12-07T15:28:55;0.88;;;0.82;;
75375;SDS011;63958;52.004;5.908;2022-12-07T15:31:24;0.90;;;0.80;;
75375;SDS011;63958;52.004;5.908;2022-12-07T15:33:53;0.73;;;0.70;;
75375;SDS011;63958;52.004;5.908;2022-12-07T15:36:23;0.85;;;0.80;;
75375;SDS011;63958;52.004;5.908;2022-12-07T15:38:53;0.80;;;0.80;;
75375;SDS011;63958;52.004;5.908;2022-12-07T15:41:22;0.82;;;0.70;;
75375;SDS011;63958;52.004;5.908;2022-12-07T15:43:52;1.10;;;0.88;;
75375;SDS011;63958;52.004;5.908;2022-12-07T15:46:36;0.82;;;0.60;;
75375;SDS011;63958;52.004;5.908;2022-12-07T15:49:08;1.50;;;0.57;;
75375;SDS011;63958;52.004;5.908;2022-12-07T15:51:40;0.52;;;0.52;;
75375;SDS011;63958;52.004;5.908;2022-12-07T15:54:11;1.10;;;0.73;;
75375;SDS011;63958;52.004;5.908;2022-12-07T15:56:47;1.25;;;0.60;;
75375;SDS011;63958;52.004;5.908;2022-12-07T15:59:16;1.00;;;0.68;;